<?xml version="1.0" encoding="UTF-8" standalone="no" ?>
<gpx xmlns="http://www.topografix.com/GPX/1/1" xmlns:xsi="http://www.w3.org/2001/XMLSchema-instance" xsi:schemaLocation="http://www.topografix.com/GPX/1/1 http://www.topografix.com/GPX/1/1/gpx.xsd" version="1.1" creator="VisuGPX - https://www.visugpx.com">
  <metadata>
    <name>Rando Officier réserve</name>
    <desc><![CDATA[Retour de rendo, bonne marche]]></desc>
  </metadata>
  <wpt lat="48.12271" lon="6.43307">
    <ele>436</ele>
  </wpt>
  <wpt lat="48.13466" lon="6.43937">
    <ele>398</ele>
  </wpt>
  <trk>
    <name><![CDATA[Rando Officier réserve_1]]></name>
    <trkseg>
      <trkpt lat="48.12271" lon="6.43307">
        <ele>436</ele>
        <time>2011-06-05T10:58:25Z</time>
      </trkpt>
      <trkpt lat="48.12292" lon="6.43274">
        <ele>436</ele>
        <time>2011-06-05T10:58:27Z</time>
      </trkpt>
      <trkpt lat="48.12303" lon="6.43257">
        <ele>436</ele>
        <time>2011-06-05T10:58:28Z</time>
      </trkpt>
      <trkpt lat="48.12313" lon="6.43241">
        <ele>436</ele>
        <time>2011-06-05T10:58:29Z</time>
      </trkpt>
      <trkpt lat="48.12324" lon="6.43224">
        <ele>436</ele>
        <time>2011-06-05T10:58:30Z</time>
      </trkpt>
      <trkpt lat="48.12334" lon="6.43209">
        <ele>436</ele>
        <time>2011-06-05T10:58:31Z</time>
      </trkpt>
      <trkpt lat="48.12345" lon="6.43194">
        <ele>436</ele>
        <time>2011-06-05T10:58:32Z</time>
      </trkpt>
      <trkpt lat="48.12354" lon="6.43179">
        <ele>436</ele>
        <time>2011-06-05T10:58:33Z</time>
      </trkpt>
      <trkpt lat="48.12364" lon="6.43164">
        <ele>436</ele>
        <time>2011-06-05T10:58:34Z</time>
      </trkpt>
      <trkpt lat="48.12374" lon="6.4315">
        <ele>436</ele>
        <time>2011-06-05T10:58:35Z</time>
      </trkpt>
      <trkpt lat="48.12384" lon="6.43135">
        <ele>436</ele>
        <time>2011-06-05T10:58:36Z</time>
      </trkpt>
      <trkpt lat="48.12394" lon="6.43121">
        <ele>436</ele>
        <time>2011-06-05T10:58:37Z</time>
      </trkpt>
      <trkpt lat="48.12405" lon="6.43108">
        <ele>436</ele>
        <time>2011-06-05T10:58:38Z</time>
      </trkpt>
      <trkpt lat="48.12416" lon="6.43095">
        <ele>436</ele>
        <time>2011-06-05T10:58:39Z</time>
      </trkpt>
      <trkpt lat="48.12428" lon="6.43083">
        <ele>436</ele>
        <time>2011-06-05T10:58:40Z</time>
      </trkpt>
      <trkpt lat="48.1244" lon="6.43073">
        <ele>436</ele>
        <time>2011-06-05T10:58:41Z</time>
      </trkpt>
      <trkpt lat="48.12452" lon="6.43062">
        <ele>436</ele>
        <time>2011-06-05T10:58:42Z</time>
      </trkpt>
      <trkpt lat="48.12466" lon="6.43054">
        <ele>436</ele>
        <time>2011-06-05T10:58:43Z</time>
      </trkpt>
      <trkpt lat="48.12479" lon="6.43046">
        <ele>436</ele>
        <time>2011-06-05T10:58:44Z</time>
      </trkpt>
      <trkpt lat="48.12493" lon="6.43039">
        <ele>436</ele>
        <time>2011-06-05T10:58:45Z</time>
      </trkpt>
      <trkpt lat="48.12507" lon="6.43032">
        <ele>436</ele>
        <time>2011-06-05T10:58:46Z</time>
      </trkpt>
      <trkpt lat="48.12522" lon="6.43026">
        <ele>436</ele>
        <time>2011-06-05T10:58:47Z</time>
      </trkpt>
      <trkpt lat="48.12537" lon="6.4302">
        <ele>436</ele>
        <time>2011-06-05T10:58:48Z</time>
      </trkpt>
      <trkpt lat="48.12552" lon="6.43013">
        <ele>436</ele>
        <time>2011-06-05T10:58:49Z</time>
      </trkpt>
      <trkpt lat="48.12567" lon="6.43007">
        <ele>436</ele>
        <time>2011-06-05T10:58:50Z</time>
      </trkpt>
      <trkpt lat="48.12582" lon="6.43001">
        <ele>436</ele>
        <time>2011-06-05T10:58:51Z</time>
      </trkpt>
      <trkpt lat="48.12597" lon="6.42993">
        <ele>436</ele>
        <time>2011-06-05T10:58:52Z</time>
      </trkpt>
      <trkpt lat="48.12613" lon="6.42987">
        <ele>436</ele>
        <time>2011-06-05T10:58:53Z</time>
      </trkpt>
      <trkpt lat="48.12629" lon="6.42981">
        <ele>431</ele>
        <time>2011-06-05T10:58:54Z</time>
      </trkpt>
      <trkpt lat="48.12643" lon="6.42976">
        <ele>431</ele>
        <time>2011-06-05T10:58:55Z</time>
      </trkpt>
      <trkpt lat="48.12657" lon="6.42971">
        <ele>431</ele>
        <time>2011-06-05T10:58:56Z</time>
      </trkpt>
      <trkpt lat="48.12672" lon="6.42969">
        <ele>431</ele>
        <time>2011-06-05T10:58:57Z</time>
      </trkpt>
      <trkpt lat="48.12687" lon="6.42967">
        <ele>431</ele>
        <time>2011-06-05T10:58:58Z</time>
      </trkpt>
      <trkpt lat="48.12701" lon="6.42967">
        <ele>431</ele>
        <time>2011-06-05T10:58:59Z</time>
      </trkpt>
      <trkpt lat="48.12716" lon="6.42968">
        <ele>431</ele>
        <time>2011-06-05T10:59:00Z</time>
      </trkpt>
      <trkpt lat="48.12731" lon="6.42973">
        <ele>431</ele>
        <time>2011-06-05T10:59:01Z</time>
      </trkpt>
      <trkpt lat="48.12746" lon="6.42978">
        <ele>431</ele>
        <time>2011-06-05T10:59:02Z</time>
      </trkpt>
      <trkpt lat="48.12761" lon="6.42986">
        <ele>431</ele>
        <time>2011-06-05T10:59:03Z</time>
      </trkpt>
      <trkpt lat="48.12776" lon="6.42994">
        <ele>431</ele>
        <time>2011-06-05T10:59:04Z</time>
      </trkpt>
      <trkpt lat="48.12791" lon="6.43005">
        <ele>431</ele>
        <time>2011-06-05T10:59:05Z</time>
      </trkpt>
      <trkpt lat="48.12807" lon="6.43019">
        <ele>431</ele>
        <time>2011-06-05T10:59:06Z</time>
      </trkpt>
      <trkpt lat="48.12822" lon="6.43032">
        <ele>431</ele>
        <time>2011-06-05T10:59:07Z</time>
      </trkpt>
      <trkpt lat="48.12837" lon="6.43047">
        <ele>431</ele>
        <time>2011-06-05T10:59:08Z</time>
      </trkpt>
      <trkpt lat="48.12852" lon="6.43063">
        <ele>431</ele>
        <time>2011-06-05T10:59:09Z</time>
      </trkpt>
      <trkpt lat="48.12867" lon="6.43078">
        <ele>431</ele>
        <time>2011-06-05T10:59:10Z</time>
      </trkpt>
      <trkpt lat="48.12882" lon="6.43093">
        <ele>431</ele>
        <time>2011-06-05T10:59:11Z</time>
      </trkpt>
      <trkpt lat="48.12929" lon="6.43141">
        <ele>431</ele>
        <time>2011-06-05T10:59:14Z</time>
      </trkpt>
      <trkpt lat="48.12945" lon="6.43159">
        <ele>431</ele>
        <time>2011-06-05T10:59:15Z</time>
      </trkpt>
      <trkpt lat="48.12961" lon="6.43176">
        <ele>431</ele>
        <time>2011-06-05T10:59:16Z</time>
      </trkpt>
      <trkpt lat="48.12978" lon="6.43191">
        <ele>431</ele>
        <time>2011-06-05T10:59:17Z</time>
      </trkpt>
      <trkpt lat="48.12995" lon="6.43206">
        <ele>431</ele>
        <time>2011-06-05T10:59:18Z</time>
      </trkpt>
      <trkpt lat="48.13012" lon="6.43223">
        <ele>431</ele>
        <time>2011-06-05T10:59:19Z</time>
      </trkpt>
      <trkpt lat="48.13028" lon="6.43239">
        <ele>431</ele>
        <time>2011-06-05T10:59:20Z</time>
      </trkpt>
      <trkpt lat="48.13045" lon="6.43257">
        <ele>431</ele>
        <time>2011-06-05T10:59:21Z</time>
      </trkpt>
      <trkpt lat="48.13062" lon="6.43274">
        <ele>431</ele>
        <time>2011-06-05T10:59:22Z</time>
      </trkpt>
      <trkpt lat="48.13078" lon="6.43292">
        <ele>431</ele>
        <time>2011-06-05T10:59:23Z</time>
      </trkpt>
      <trkpt lat="48.13094" lon="6.43311">
        <ele>431</ele>
        <time>2011-06-05T10:59:24Z</time>
      </trkpt>
      <trkpt lat="48.13141" lon="6.43366">
        <ele>425</ele>
        <time>2011-06-05T10:59:27Z</time>
      </trkpt>
      <trkpt lat="48.13157" lon="6.43387">
        <ele>425</ele>
        <time>2011-06-05T10:59:28Z</time>
      </trkpt>
      <trkpt lat="48.13173" lon="6.43408">
        <ele>420</ele>
        <time>2011-06-05T10:59:29Z</time>
      </trkpt>
      <trkpt lat="48.13188" lon="6.43426">
        <ele>420</ele>
        <time>2011-06-05T10:59:30Z</time>
      </trkpt>
      <trkpt lat="48.13204" lon="6.43447">
        <ele>420</ele>
        <time>2011-06-05T10:59:31Z</time>
      </trkpt>
      <trkpt lat="48.1322" lon="6.43467">
        <ele>414</ele>
        <time>2011-06-05T10:59:32Z</time>
      </trkpt>
      <trkpt lat="48.13235" lon="6.43486">
        <ele>414</ele>
        <time>2011-06-05T10:59:33Z</time>
      </trkpt>
      <trkpt lat="48.13249" lon="6.43506">
        <ele>414</ele>
        <time>2011-06-05T10:59:34Z</time>
      </trkpt>
      <trkpt lat="48.13262" lon="6.43527">
        <ele>409</ele>
        <time>2011-06-05T10:59:35Z</time>
      </trkpt>
      <trkpt lat="48.13274" lon="6.4355">
        <ele>409</ele>
        <time>2011-06-05T10:59:36Z</time>
      </trkpt>
      <trkpt lat="48.13286" lon="6.43575">
        <ele>409</ele>
        <time>2011-06-05T10:59:37Z</time>
      </trkpt>
      <trkpt lat="48.13298" lon="6.43599">
        <ele>409</ele>
        <time>2011-06-05T10:59:38Z</time>
      </trkpt>
      <trkpt lat="48.1331" lon="6.43623">
        <ele>409</ele>
        <time>2011-06-05T10:59:39Z</time>
      </trkpt>
      <trkpt lat="48.13323" lon="6.43648">
        <ele>409</ele>
        <time>2011-06-05T10:59:40Z</time>
      </trkpt>
      <trkpt lat="48.13336" lon="6.43673">
        <ele>409</ele>
        <time>2011-06-05T10:59:41Z</time>
      </trkpt>
      <trkpt lat="48.13348" lon="6.43699">
        <ele>409</ele>
        <time>2011-06-05T10:59:42Z</time>
      </trkpt>
      <trkpt lat="48.13361" lon="6.43724">
        <ele>409</ele>
        <time>2011-06-05T10:59:43Z</time>
      </trkpt>
      <trkpt lat="48.13374" lon="6.4375">
        <ele>409</ele>
        <time>2011-06-05T10:59:44Z</time>
      </trkpt>
      <trkpt lat="48.13387" lon="6.43776">
        <ele>403</ele>
        <time>2011-06-05T10:59:45Z</time>
      </trkpt>
      <trkpt lat="48.13399" lon="6.43802">
        <ele>403</ele>
        <time>2011-06-05T10:59:46Z</time>
      </trkpt>
      <trkpt lat="48.13413" lon="6.43829">
        <ele>403</ele>
        <time>2011-06-05T10:59:47Z</time>
      </trkpt>
      <trkpt lat="48.13425" lon="6.43856">
        <ele>403</ele>
        <time>2011-06-05T10:59:48Z</time>
      </trkpt>
      <trkpt lat="48.13439" lon="6.43883">
        <ele>403</ele>
        <time>2011-06-05T10:59:49Z</time>
      </trkpt>
      <trkpt lat="48.13452" lon="6.4391">
        <ele>403</ele>
        <time>2011-06-05T10:59:50Z</time>
      </trkpt>
      <trkpt lat="48.13466" lon="6.43937">
        <ele>398</ele>
        <time>2011-06-05T10:59:51Z</time>
      </trkpt>
    </trkseg>
  </trk>
</gpx>